createdAt,value
2018-01-15T00:00:14.561Z,0
2018-01-15T00:01:15.015Z,0
2018-01-15T00:02:14.738Z,0
2018-01-15T00:03:14.990Z,0
2018-01-15T00:04:15.249Z,0
2018-01-15T00:05:14.669Z,0
2018-01-15T00:06:15.203Z,0
2018-01-15T00:07:15.191Z,0
2018-01-15T00:08:15.162Z,0
2018-01-15T00:09:14.588Z,0
2018-01-15T00:10:14.570Z,0
2018-01-15T00:11:14.565Z,0
2018-01-15T00:12:14.565Z,0
2018-01-15T00:13:14.517Z,0
2018-01-15T00:14:14.808Z,0
2018-01-15T00:15:14.748Z,0
2018-01-15T00:16:14.466Z,0
2018-01-15T00:17:14.460Z,0
2018-01-15T00:18:14.490Z,0
2018-01-15T00:19:14.401Z,0
2018-01-15T00:20:14.923Z,0
2018-01-15T00:21:14.925Z,0
2018-01-15T00:22:14.102Z,0
2018-01-15T00:23:14.339Z,0
2018-01-15T00:24:14.309Z,0
2018-01-15T00:25:14.574Z,0
2018-01-15T00:26:14.586Z,0
2018-01-15T00:27:14.253Z,0
2018-01-15T00:28:13.965Z,0
2018-01-15T00:29:13.962Z,0
2018-01-15T00:30:14.475Z,0
2018-01-15T00:31:14.461Z,0
2018-01-15T00:32:13.884Z,0
2018-01-15T00:33:14.408Z,0
2018-01-15T00:34:14.391Z,0
2018-01-15T00:35:13.828Z,0
2018-01-15T00:36:14.081Z,0
2018-01-15T00:37:14.352Z,0
2018-01-15T00:38:14.049Z,0
2018-01-15T00:39:14.291Z,0
2018-01-15T00:40:14.272Z,0
2018-01-15T00:41:13.982Z,0
2018-01-15T00:42:13.965Z,0
2018-01-15T00:43:14.241Z,0
2018-01-15T00:44:13.935Z,0
2018-01-15T00:45:13.911Z,0
2018-01-15T00:46:13.886Z,0
2018-01-15T00:47:13.605Z,0
2018-01-15T00:48:13.850Z,0
2018-01-15T00:49:13.575Z,0
2018-01-15T00:50:13.559Z,0
2018-01-15T00:51:14.332Z,0
2018-01-15T00:52:13.796Z,0
2018-01-15T00:53:13.751Z,0
2018-01-15T00:54:13.482Z,0
2018-01-15T00:55:13.731Z,0
2018-01-15T00:56:13.711Z,0
2018-01-15T00:57:13.948Z,0
2018-01-15T00:58:13.388Z,0
2018-01-15T00:59:13.903Z,0
2018-01-15T01:00:13.893Z,0
2018-01-15T01:01:13.626Z,0
2018-01-15T01:02:13.843Z,0
2018-01-15T01:03:14.124Z,0
2018-01-15T01:04:13.534Z,0
2018-01-15T01:05:13.791Z,0
2018-01-15T01:06:13.768Z,0
2018-01-15T01:07:13.748Z,0
2018-01-15T01:08:13.997Z,0
2018-01-15T01:09:13.205Z,0
2018-01-15T01:10:13.968Z,0
2018-01-15T01:11:13.424Z,0
2018-01-15T01:12:13.647Z,0
2018-01-15T01:13:13.100Z,0
2018-01-15T01:14:13.626Z,0
2018-01-15T01:15:13.318Z,0
2018-01-15T01:16:13.298Z,0
2018-01-15T01:17:13.570Z,0
2018-01-15T01:18:13.260Z,0
2018-01-15T01:19:13.262Z,0
2018-01-15T01:20:13.236Z,0
2018-01-15T01:21:13.403Z,0
2018-01-15T01:22:13.453Z,0
2018-01-15T01:23:12.903Z,0
2018-01-15T01:24:12.871Z,0
2018-01-15T01:25:13.391Z,0
2018-01-15T01:26:13.374Z,0
2018-01-15T01:27:13.362Z,0
2018-01-15T01:28:13.335Z,0
2018-01-15T01:29:13.053Z,0
2018-01-15T01:30:13.572Z,0
2018-01-15T01:31:13.006Z,0
2018-01-15T01:32:13.263Z,0
2018-01-15T01:33:12.714Z,0
2018-01-15T01:34:12.955Z,0
2018-01-15T01:35:12.924Z,0
2018-01-15T01:36:13.182Z,0
2018-01-15T01:37:12.886Z,0
2018-01-15T01:38:12.940Z,0
2018-01-15T01:39:12.618Z,0
2018-01-15T01:40:12.850Z,0
2018-01-15T01:41:12.837Z,0
2018-01-15T01:42:12.798Z,0
2018-01-15T01:43:12.763Z,0
2018-01-15T01:44:12.758Z,0
2018-01-15T01:45:13.010Z,0
2018-01-15T01:46:12.710Z,0
2018-01-15T01:47:12.685Z,0
2018-01-15T01:48:12.414Z,0
2018-01-15T01:49:12.932Z,0
2018-01-15T01:50:12.915Z,0
2018-01-15T01:51:13.429Z,0
2018-01-15T01:52:13.130Z,0
2018-01-15T01:53:12.563Z,0
2018-01-15T01:54:12.576Z,0
2018-01-15T01:55:12.526Z,0
2018-01-15T01:56:12.506Z,0
2018-01-15T01:57:12.488Z,0
2018-01-15T01:58:12.761Z,0
2018-01-15T01:59:12.757Z,0
2018-01-15T02:00:12.702Z,0
2018-01-15T02:01:12.709Z,0
2018-01-15T02:02:12.148Z,0
2018-01-15T02:03:12.096Z,0
2018-01-15T02:04:12.661Z,0
2018-01-15T02:05:12.331Z,0
2018-01-15T02:06:12.319Z,0
2018-01-15T02:07:13.127Z,0
2018-01-15T02:08:12.547Z,0
2018-01-15T02:09:12.248Z,0
2018-01-15T02:10:12.499Z,0
2018-01-15T02:11:12.223Z,0
2018-01-15T02:12:12.198Z,0
2018-01-15T02:13:12.178Z,0
2018-01-15T02:14:12.417Z,0
2018-01-15T02:15:12.131Z,0
2018-01-15T02:16:12.387Z,0
2018-01-15T02:17:11.819Z,0
2018-01-15T02:18:12.067Z,0
2018-01-15T02:19:12.109Z,0
2018-01-15T02:20:12.027Z,0
2018-01-15T02:21:12.280Z,0
2018-01-15T02:22:12.009Z,0
2018-01-15T02:23:11.709Z,0
2018-01-15T02:24:11.949Z,0
2018-01-15T02:25:11.658Z,0
2018-01-15T02:26:11.908Z,0
2018-01-15T02:27:11.896Z,0
2018-01-15T02:28:11.874Z,0
2018-01-15T02:29:11.848Z,0
2018-01-15T02:30:11.829Z,0
2018-01-15T02:31:11.823Z,0
2018-01-15T02:32:12.070Z,0
2018-01-15T02:33:11.791Z,0
2018-01-15T02:34:12.041Z,0
2018-01-15T02:35:12.004Z,0
2018-01-15T02:36:11.741Z,0
2018-01-15T02:37:11.690Z,0
2018-01-15T02:38:11.403Z,0
2018-01-15T02:39:11.657Z,0
2018-01-15T02:40:11.632Z,0
2018-01-15T02:41:11.888Z,0
2018-01-15T02:42:11.317Z,0
2018-01-15T02:43:11.841Z,0
2018-01-15T02:44:11.549Z,0
2018-01-15T02:45:11.821Z,0
2018-01-15T02:46:12.051Z,0
2018-01-15T02:47:11.759Z,0
2018-01-15T02:48:11.219Z,0
2018-01-15T02:49:11.444Z,0
2018-01-15T02:50:11.973Z,0
2018-01-15T02:51:11.430Z,0
2018-01-15T02:52:11.715Z,0
2018-01-15T02:53:11.367Z,0
2018-01-15T02:54:11.353Z,0
2018-01-15T02:55:11.871Z,0
2018-01-15T02:56:11.579Z,0
2018-01-15T02:57:11.569Z,0
2018-01-15T02:58:11.267Z,0
2018-01-15T02:59:11.253Z,0
2018-01-15T03:00:11.225Z,0
2018-01-15T03:01:10.940Z,0
2018-01-15T03:02:10.920Z,0
2018-01-15T03:03:11.740Z,0
2018-01-15T03:04:11.151Z,0
2018-01-15T03:05:11.131Z,0
2018-01-15T03:06:10.839Z,0
2018-01-15T03:07:10.823Z,0
2018-01-15T03:08:11.376Z,0
2018-01-15T03:09:11.589Z,0
2018-01-15T03:10:11.027Z,0
2018-01-15T03:11:10.745Z,0
2018-01-15T03:12:11.270Z,0
2018-01-15T03:13:11.552Z,0
2018-01-15T03:14:10.969Z,0
2018-01-15T03:15:10.928Z,0
2018-01-15T03:16:10.659Z,0
2018-01-15T03:17:10.895Z,0
2018-01-15T03:18:10.867Z,0
2018-01-15T03:19:10.850Z,0
2018-01-15T03:20:10.829Z,0
2018-01-15T03:21:11.080Z,0
2018-01-15T03:22:10.517Z,0
2018-01-15T03:23:11.322Z,0
2018-01-15T03:24:11.018Z,0
2018-01-15T03:25:10.740Z,0
2018-01-15T03:26:11.290Z,0
2018-01-15T03:27:10.701Z,0
2018-01-15T03:28:10.399Z,0
2018-01-15T03:29:10.400Z,0
2018-01-15T03:30:10.632Z,0
2018-01-15T03:31:11.764Z,0
2018-01-15T03:32:10.595Z,0
2018-01-15T03:33:11.119Z,0
2018-01-15T03:34:10.562Z,0
2018-01-15T03:35:10.261Z,0
2018-01-15T03:36:10.781Z,0
2018-01-15T03:37:10.760Z,0
2018-01-15T03:38:11.031Z,0
2018-01-15T03:39:10.718Z,0
2018-01-15T03:40:10.430Z,0
2018-01-15T03:41:10.437Z,0
2018-01-15T03:42:10.392Z,0
2018-01-15T03:43:10.097Z,0
2018-01-15T03:44:10.901Z,0
2018-01-15T03:45:10.595Z,0
2018-01-15T03:46:10.582Z,0
2018-01-15T03:47:10.826Z,0
2018-01-15T03:48:10.003Z,0
2018-01-15T03:49:10.551Z,0
2018-01-15T03:50:09.980Z,0
2018-01-15T03:51:10.478Z,0
2018-01-15T03:52:10.456Z,0
2018-01-15T03:53:10.222Z,0
2018-01-15T03:54:10.164Z,0
2018-01-15T03:55:10.395Z,0
2018-01-15T03:56:10.656Z,0
2018-01-15T03:57:10.384Z,0
2018-01-15T03:58:10.361Z,0
2018-01-15T03:59:10.329Z,0
2018-01-15T04:00:10.324Z,0
2018-01-15T04:01:09.735Z,0
2018-01-15T04:02:10.784Z,0
2018-01-15T04:03:10.264Z,0
2018-01-15T04:04:10.297Z,0
2018-01-15T04:05:10.248Z,0
2018-01-15T04:06:09.944Z,0
2018-01-15T04:07:10.155Z,0
2018-01-15T04:08:10.139Z,0
2018-01-15T04:09:10.141Z,0
2018-01-15T04:10:10.113Z,0
2018-01-15T04:11:10.350Z,0
2018-01-15T04:12:09.530Z,0
2018-01-15T04:13:09.499Z,0
2018-01-15T04:14:10.072Z,0
2018-01-15T04:15:09.736Z,0
2018-01-15T04:16:10.091Z,0
2018-01-15T04:17:09.746Z,0
2018-01-15T04:18:09.667Z,0
2018-01-15T04:19:09.918Z,0
2018-01-15T04:20:09.928Z,0
2018-01-15T04:21:09.607Z,0
2018-01-15T04:22:09.856Z,0
2018-01-15T04:23:09.574Z,0
2018-01-15T04:24:09.816Z,0
2018-01-15T04:25:09.801Z,0
2018-01-15T04:26:09.533Z,0
2018-01-15T04:27:09.755Z,0
2018-01-15T04:28:09.193Z,0
2018-01-15T04:29:09.757Z,0
2018-01-15T04:30:09.426Z,0
2018-01-15T04:31:09.413Z,0
2018-01-15T04:32:09.675Z,0
2018-01-15T04:33:09.094Z,0
2018-01-15T04:34:09.652Z,0
2018-01-15T04:35:09.344Z,0
2018-01-15T04:36:09.507Z,0
2018-01-15T04:37:09.295Z,0
2018-01-15T04:38:10.090Z,0
2018-01-15T04:39:09.266Z,0
2018-01-15T04:40:08.957Z,0
2018-01-15T04:41:09.493Z,0
2018-01-15T04:42:09.472Z,0
2018-01-15T04:43:08.948Z,0
2018-01-15T04:44:09.152Z,0
2018-01-15T04:45:09.142Z,0
2018-01-15T04:46:09.104Z,0
2018-01-15T04:47:08.825Z,0
2018-01-15T04:48:08.793Z,0
2018-01-15T04:49:09.587Z,0
2018-01-15T04:50:09.025Z,0
2018-01-15T04:51:08.733Z,0
2018-01-15T04:52:09.258Z,0
2018-01-15T04:53:08.964Z,0
2018-01-15T04:54:08.941Z,0
2018-01-15T04:55:09.732Z,0
2018-01-15T04:56:09.180Z,0
2018-01-15T04:57:08.910Z,0
2018-01-15T04:58:08.874Z,0
2018-01-15T04:59:09.386Z,0
2018-01-15T05:00:08.822Z,0
2018-01-15T05:01:08.540Z,0
2018-01-15T05:02:09.058Z,0
2018-01-15T05:03:09.047Z,0
2018-01-15T05:04:09.028Z,0
2018-01-15T05:05:09.045Z,0
2018-01-15T05:06:08.972Z,0
2018-01-15T05:07:08.705Z,0
2018-01-15T05:08:08.951Z,0
2018-01-15T05:09:08.642Z,0
2018-01-15T05:10:08.895Z,0
2018-01-15T05:11:08.599Z,0
2018-01-15T05:12:08.852Z,0
2018-01-15T05:13:08.851Z,0
2018-01-15T05:14:08.272Z,0
2018-01-15T05:15:08.529Z,0
2018-01-15T05:16:08.502Z,0
2018-01-15T05:17:08.502Z,0
2018-01-15T05:18:08.741Z,0
2018-01-15T05:19:08.712Z,0
2018-01-15T05:20:08.439Z,0
2018-01-15T05:21:08.133Z,0
2018-01-15T05:22:08.647Z,0
2018-01-15T05:23:08.366Z,0
2018-01-15T05:24:08.345Z,0
2018-01-15T05:25:08.325Z,0
2018-01-15T05:26:08.044Z,0
2018-01-15T05:27:08.278Z,0
2018-01-15T05:28:07.990Z,0
2018-01-15T05:29:08.267Z,0
2018-01-15T05:30:08.230Z,0
2018-01-15T05:31:08.201Z,0
2018-01-15T05:32:08.211Z,0
2018-01-15T05:33:08.705Z,0
2018-01-15T05:34:08.414Z,0
2018-01-15T05:35:08.143Z,0
2018-01-15T05:36:08.126Z,0
2018-01-15T05:37:08.080Z,0
2018-01-15T05:38:08.342Z,0
2018-01-15T05:39:08.345Z,0
2018-01-15T05:40:08.043Z,0
2018-01-15T05:41:08.290Z,0
2018-01-15T05:42:08.014Z,0
2018-01-15T05:43:07.691Z,0
2018-01-15T05:44:07.939Z,0
2018-01-15T05:45:08.190Z,0
2018-01-15T05:46:07.655Z,0
2018-01-15T05:47:08.420Z,0
2018-01-15T05:48:07.883Z,0
2018-01-15T05:49:07.572Z,0
2018-01-15T05:50:07.841Z,0
2018-01-15T05:51:07.542Z,0
2018-01-15T05:52:08.065Z,0
2018-01-15T05:53:08.031Z,0
2018-01-15T05:54:07.761Z,0
2018-01-15T05:55:08.258Z,0
2018-01-15T05:56:07.729Z,0
2018-01-15T05:57:07.677Z,0
2018-01-15T05:58:07.389Z,0
2018-01-15T05:59:07.383Z,0
2018-01-15T06:00:07.908Z,0
2018-01-15T06:01:07.874Z,0
2018-01-15T06:02:07.874Z,0
2018-01-15T06:03:07.308Z,0
2018-01-15T06:04:07.576Z,0
2018-01-15T06:05:07.524Z,0
2018-01-15T06:06:07.229Z,0
2018-01-15T06:07:07.753Z,0
2018-01-15T06:08:07.466Z,0
2018-01-15T06:09:07.718Z,0
2018-01-15T06:10:07.970Z,0
2018-01-15T06:11:07.674Z,0
2018-01-15T06:12:07.666Z,0
2018-01-15T06:13:07.377Z,0
2018-01-15T06:14:08.195Z,0
2018-01-15T06:15:09.100Z,0
2018-01-15T06:16:07.572Z,0
2018-01-15T06:17:07.298Z,0
2018-01-15T06:18:07.287Z,0
2018-01-15T06:19:07.568Z,0
2018-01-15T06:20:07.223Z,0
2018-01-15T06:21:07.214Z,0
2018-01-15T06:22:07.456Z,0
2018-01-15T06:23:07.434Z,0
2018-01-15T06:24:07.692Z,0
2018-01-15T06:25:07.126Z,0
2018-01-15T06:26:07.121Z,0
2018-01-15T06:27:06.833Z,0
2018-01-15T06:28:07.687Z,0
2018-01-15T06:29:07.590Z,0
2018-01-15T06:30:06.764Z,0
2018-01-15T06:31:07.008Z,0
2018-01-15T06:32:06.735Z,0
2018-01-15T06:33:07.240Z,0
2018-01-15T06:34:07.504Z,0
2018-01-15T06:35:06.659Z,0
2018-01-15T06:36:06.923Z,0
2018-01-15T06:37:07.163Z,0
2018-01-15T06:38:06.888Z,0
2018-01-15T06:39:06.869Z,0
2018-01-15T06:40:07.386Z,0
2018-01-15T06:41:06.813Z,0
2018-01-15T06:42:07.081Z,0
2018-01-15T06:43:06.776Z,0
2018-01-15T06:44:07.040Z,0
2018-01-15T06:45:07.041Z,0
2018-01-15T06:46:06.723Z,0
2018-01-15T06:47:06.999Z,0
2018-01-15T06:48:10.231Z,0
2018-01-15T06:49:06.673Z,0
2018-01-15T06:50:07.178Z,0
2018-01-15T06:51:06.888Z,0
2018-01-15T06:52:06.603Z,0
2018-01-15T06:53:06.849Z,0
2018-01-15T06:54:06.929Z,0
2018-01-15T06:55:06.272Z,0
2018-01-15T06:56:06.522Z,0
2018-01-15T06:57:06.503Z,0
2018-01-15T06:58:06.484Z,0
2018-01-15T06:59:06.195Z,0
2018-01-15T07:00:07.052Z,0
2018-01-15T07:01:06.711Z,0
2018-01-15T07:02:06.879Z,0
2018-01-15T07:03:06.400Z,5
2018-01-15T07:04:06.638Z,5
2018-01-15T07:05:06.351Z,5
2018-01-15T07:06:06.620Z,5
2018-01-15T07:07:06.850Z,5
2018-01-15T07:08:06.862Z,5
2018-01-15T07:09:06.550Z,5
2018-01-15T07:10:06.384Z,5
2018-01-15T07:11:06.508Z,10
2018-01-15T07:12:06.481Z,10
2018-01-15T07:13:06.206Z,10
2018-01-15T07:14:05.939Z,10
2018-01-15T07:15:05.884Z,10
2018-01-15T07:16:06.164Z,10
2018-01-15T07:17:06.856Z,10
2018-01-15T07:18:06.229Z,10
2018-01-15T07:19:06.189Z,15
2018-01-15T07:20:06.705Z,15
2018-01-15T07:21:06.055Z,15
2018-01-15T07:22:06.393Z,15
2018-01-15T07:23:06.370Z,15
2018-01-15T07:24:05.980Z,15
2018-01-15T07:25:06.236Z,15
2018-01-15T07:26:05.718Z,15
2018-01-15T07:27:05.672Z,15
2018-01-15T07:28:06.458Z,20
2018-01-15T07:29:05.903Z,20
2018-01-15T07:30:06.482Z,20
2018-01-15T07:31:05.595Z,25
2018-01-15T07:32:06.643Z,25
2018-01-15T07:33:06.149Z,30
2018-01-15T07:34:06.064Z,30
2018-01-15T07:35:05.506Z,30
2018-01-15T07:36:06.035Z,30
2018-01-15T07:37:05.731Z,35
2018-01-15T07:38:05.708Z,35
2018-01-15T07:39:05.974Z,40
2018-01-15T07:40:05.940Z,40
2018-01-15T07:41:06.483Z,45
2018-01-15T07:42:05.397Z,45
2018-01-15T07:43:05.881Z,45
2018-01-15T07:44:05.865Z,45
2018-01-15T07:45:05.576Z,45
2018-01-15T07:46:05.829Z,50
2018-01-15T07:47:05.817Z,45
2018-01-15T07:48:06.061Z,50
2018-01-15T07:49:05.772Z,50
2018-01-15T07:50:05.494Z,55
2018-01-15T07:51:05.461Z,55
2018-01-15T07:52:05.734Z,55
2018-01-15T07:53:05.701Z,55
2018-01-15T07:54:05.409Z,60
2018-01-15T07:55:05.379Z,60
2018-01-15T07:56:05.644Z,60
2018-01-15T07:57:05.343Z,65
2018-01-15T07:58:05.611Z,60
2018-01-15T07:59:05.377Z,60
2018-01-15T08:00:05.299Z,55
2018-01-15T08:01:05.914Z,55
2018-01-15T08:02:05.257Z,55
2018-01-15T08:03:05.767Z,55
2018-01-15T08:04:05.222Z,55
2018-01-15T08:05:06.014Z,55
2018-01-15T08:06:05.450Z,55
2018-01-15T08:07:05.169Z,55
2018-01-15T08:08:05.407Z,55
2018-01-15T08:09:05.417Z,60
2018-01-15T08:10:04.840Z,60
2018-01-15T08:11:05.338Z,60
2018-01-15T08:12:05.055Z,60
2018-01-15T08:13:05.590Z,60
2018-01-15T08:14:04.743Z,60
2018-01-15T08:15:04.992Z,60
2018-01-15T08:16:05.267Z,60
2018-01-15T08:17:04.689Z,60
2018-01-15T08:18:05.475Z,60
2018-01-15T08:19:04.921Z,65
2018-01-15T08:20:05.731Z,65
2018-01-15T08:21:04.881Z,65
2018-01-15T08:22:04.907Z,65
2018-01-15T08:23:04.570Z,65
2018-01-15T08:24:04.545Z,65
2018-01-15T08:25:04.799Z,65
2018-01-15T08:26:05.324Z,65
2018-01-15T08:27:04.488Z,65
2018-01-15T08:28:04.744Z,65
2018-01-15T08:29:04.770Z,70
2018-01-15T08:30:05.015Z,70
2018-01-15T08:31:04.410Z,70
2018-01-15T08:32:04.389Z,70
2018-01-15T08:33:04.708Z,70
2018-01-15T08:34:04.634Z,70
2018-01-15T08:35:04.606Z,70
2018-01-15T08:36:04.607Z,70
2018-01-15T08:37:04.311Z,70
2018-01-15T08:38:04.819Z,70
2018-01-15T08:39:04.526Z,70
2018-01-15T08:40:05.089Z,70
2018-01-15T08:41:04.488Z,75
2018-01-15T08:42:04.338Z,75
2018-01-15T08:43:05.260Z,75
2018-01-15T08:44:04.696Z,75
2018-01-15T08:45:04.411Z,75
2018-01-15T08:46:04.987Z,75
2018-01-15T08:47:04.515Z,75
2018-01-15T08:48:04.628Z,75
2018-01-15T08:49:04.607Z,75
2018-01-15T08:50:05.145Z,75
2018-01-15T08:51:04.296Z,75
2018-01-15T08:52:04.281Z,75
2018-01-15T08:53:05.110Z,75
2018-01-15T08:54:04.500Z,75
2018-01-15T08:55:04.301Z,80
2018-01-15T08:56:04.464Z,80
2018-01-15T08:57:04.524Z,80
2018-01-15T08:58:04.706Z,80
2018-01-15T08:59:04.407Z,80
2018-01-15T09:00:04.148Z,80
2018-01-15T09:01:04.451Z,80
2018-01-15T09:02:03.803Z,80
2018-01-15T09:03:04.206Z,80
2018-01-15T09:04:03.769Z,80
2018-01-15T09:05:04.056Z,80
2018-01-15T09:06:04.020Z,80
2018-01-15T09:07:03.993Z,80
2018-01-15T09:08:04.232Z,80
2018-01-15T09:09:03.672Z,80
2018-01-15T09:10:04.465Z,85
2018-01-15T09:11:03.650Z,85
2018-01-15T09:12:03.902Z,85
2018-01-15T09:13:04.163Z,85
2018-01-15T09:14:04.119Z,85
2018-01-15T09:15:03.845Z,85
2018-01-15T09:16:04.351Z,85
2018-01-15T09:17:04.446Z,85
2018-01-15T09:18:04.033Z,85
2018-01-15T09:19:04.068Z,85
2018-01-15T09:20:04.000Z,85
2018-01-15T09:21:03.435Z,85
2018-01-15T09:22:03.687Z,85
2018-01-15T09:23:03.949Z,85
2018-01-15T09:24:03.669Z,85
2018-01-15T09:25:03.908Z,85
2018-01-15T09:26:03.340Z,85
2018-01-15T09:27:03.860Z,85
2018-01-15T09:28:03.304Z,85
2018-01-15T09:29:03.849Z,85
2018-01-15T09:30:03.546Z,85
2018-01-15T09:31:03.518Z,85
2018-01-15T09:32:03.498Z,85
2018-01-15T09:33:03.765Z,85
2018-01-15T09:34:03.734Z,85
2018-01-15T09:35:03.442Z,85
2018-01-15T09:36:03.418Z,85
2018-01-15T09:37:03.690Z,85
2018-01-15T09:38:03.705Z,85
2018-01-15T09:39:03.361Z,85
2018-01-15T09:40:03.344Z,90
2018-01-15T09:41:03.592Z,90
2018-01-15T09:42:03.594Z,90
2018-01-15T09:43:03.282Z,90
2018-01-15T09:44:03.264Z,90
2018-01-15T09:45:03.421Z,90
2018-01-15T09:46:02.973Z,90
2018-01-15T09:47:03.217Z,90
2018-01-15T09:48:03.191Z,90
2018-01-15T09:49:03.209Z,90
2018-01-15T09:50:03.154Z,90
2018-01-15T09:51:03.410Z,90
2018-01-15T09:52:03.383Z,90
2018-01-15T09:53:03.130Z,90
2018-01-15T09:54:03.098Z,90
2018-01-15T09:55:02.784Z,90
2018-01-15T09:56:03.329Z,90
2018-01-15T09:57:03.306Z,90
2018-01-15T09:58:02.995Z,90
2018-01-15T09:59:03.264Z,90
2018-01-15T10:00:03.562Z,90
2018-01-15T10:01:03.081Z,90
2018-01-15T10:02:03.256Z,90
2018-01-15T10:03:03.194Z,90
2018-01-15T10:04:03.203Z,90
2018-01-15T10:05:03.138Z,90
2018-01-15T10:06:03.304Z,90
2018-01-15T10:07:03.104Z,90
2018-01-15T10:08:02.818Z,90
2018-01-15T10:09:02.850Z,90
2018-01-15T10:10:03.152Z,90
2018-01-15T10:11:02.507Z,90
2018-01-15T10:12:03.002Z,90
2018-01-15T10:13:02.467Z,90
2018-01-15T10:14:02.978Z,90
2018-01-15T10:15:02.735Z,90
2018-01-15T10:16:02.729Z,90
2018-01-15T10:17:03.149Z,90
2018-01-15T10:18:02.990Z,90
2018-01-15T10:19:02.349Z,90
2018-01-15T10:20:02.600Z,90
2018-01-15T10:21:03.123Z,90
2018-01-15T10:22:02.540Z,95
2018-01-15T10:23:02.851Z,90
2018-01-15T10:24:02.766Z,95
2018-01-15T10:25:02.480Z,95
2018-01-15T10:26:02.467Z,95
2018-01-15T10:27:02.440Z,95
2018-01-15T10:28:02.698Z,95
2018-01-15T10:29:02.677Z,95
2018-01-15T10:30:02.381Z,95
2018-01-15T10:31:02.093Z,95
2018-01-15T10:32:02.348Z,95
2018-01-15T10:33:02.060Z,95
2018-01-15T10:34:02.584Z,95
2018-01-15T10:35:02.561Z,95
2018-01-15T10:36:02.834Z,95
2018-01-15T10:37:02.247Z,95
2018-01-15T10:38:02.511Z,100
2018-01-15T10:39:02.481Z,100
2018-01-15T10:40:02.479Z,100
2018-01-15T10:41:02.454Z,100
2018-01-15T10:42:02.194Z,95
2018-01-15T10:43:02.143Z,95
2018-01-15T10:44:02.120Z,95
2018-01-15T10:45:02.383Z,95
2018-01-15T10:46:02.091Z,95
2018-01-15T10:47:02.385Z,95
2018-01-15T10:48:02.311Z,95
2018-01-15T10:49:02.023Z,95
2018-01-15T10:50:02.004Z,95
2018-01-15T10:51:01.998Z,95
2018-01-15T10:52:01.980Z,95
2018-01-15T10:53:01.968Z,95
2018-01-15T10:54:01.931Z,95
2018-01-15T10:55:02.184Z,95
2018-01-15T10:56:02.177Z,95
2018-01-15T10:57:01.880Z,95
2018-01-15T10:58:01.859Z,95
2018-01-15T10:59:01.865Z,95
2018-01-15T11:00:01.550Z,100
2018-01-15T11:01:02.068Z,100
2018-01-15T11:02:01.793Z,95
2018-01-15T11:03:02.328Z,95
2018-01-15T11:04:02.031Z,95
2018-01-15T11:05:01.995Z,95
2018-01-15T11:06:01.976Z,95
2018-01-15T11:07:01.717Z,95
2018-01-15T11:08:01.410Z,95
2018-01-15T11:09:01.647Z,95
2018-01-15T11:10:01.359Z,95
2018-01-15T11:11:01.641Z,95
2018-01-15T11:12:01.594Z,95
2018-01-15T11:13:01.601Z,95
2018-01-15T11:14:01.557Z,95
2018-01-15T11:15:01.538Z,95
2018-01-15T11:16:01.525Z,95
2018-01-15T11:17:01.523Z,95
2018-01-15T11:18:01.511Z,95
2018-01-15T11:19:01.485Z,95
2018-01-15T11:20:01.184Z,95
2018-01-15T11:21:02.012Z,95
2018-01-15T11:22:01.678Z,95
2018-01-15T11:23:01.580Z,95
2018-01-15T11:24:01.642Z,95
2018-01-15T11:25:01.355Z,95
2018-01-15T11:26:01.711Z,95
2018-01-15T11:27:01.361Z,95
2018-01-15T11:28:01.492Z,95
2018-01-15T11:29:01.285Z,95
2018-01-15T11:30:01.260Z,95
2018-01-15T11:31:00.973Z,95
2018-01-15T11:32:01.495Z,95
2018-01-15T11:33:00.935Z,95
2018-01-15T11:34:01.187Z,95
2018-01-15T11:35:01.182Z,95
2018-01-15T11:36:01.171Z,95
2018-01-15T11:37:01.147Z,95
2018-01-15T11:38:01.199Z,95
2018-01-15T11:39:00.835Z,95
2018-01-15T11:40:00.821Z,95
2018-01-15T11:41:01.348Z,95
2018-01-15T11:42:01.052Z,95
2018-01-15T11:43:01.305Z,95
2018-01-15T11:44:01.032Z,95
2018-01-15T11:45:00.728Z,95
2018-01-15T11:46:00.708Z,95
2018-01-15T11:47:01.245Z,95
2018-01-15T11:48:00.691Z,95
2018-01-15T11:49:00.928Z,95
2018-01-15T11:50:00.656Z,95
2018-01-15T11:51:01.471Z,90
2018-01-15T11:52:01.700Z,90
2018-01-15T11:53:01.138Z,90
2018-01-15T11:54:00.839Z,95
2018-01-15T11:55:01.091Z,95
2018-01-15T11:56:00.799Z,95
2018-01-15T11:57:00.775Z,95
2018-01-15T11:58:00.765Z,95
2018-01-15T11:59:00.778Z,95
2018-01-15T12:00:00.465Z,95
2018-01-15T12:01:00.725Z,95
2018-01-15T12:02:00.691Z,95
2018-01-15T12:03:00.948Z,95
2018-01-15T12:04:00.657Z,95
2018-01-15T12:05:00.932Z,95
2018-01-15T12:06:00.620Z,95
2018-01-15T12:07:00.616Z,95
2018-01-15T12:08:00.878Z,95
2018-01-15T12:09:01.145Z,95
2018-01-15T12:10:00.826Z,95
2018-01-15T12:11:00.260Z,95
2018-01-15T12:12:00.512Z,95
2018-01-15T12:13:00.494Z,95
2018-01-15T12:14:00.488Z,95
2018-01-15T12:15:00.485Z,95
2018-01-15T12:16:00.460Z,95
2018-01-15T12:17:00.443Z,95
2018-01-15T12:18:00.684Z,95
2018-01-15T12:19:01.213Z,95
2018-01-15T12:20:00.943Z,95
2018-01-15T12:21:00.631Z,95
2018-01-15T12:22:00.351Z,95
2018-01-15T12:23:00.893Z,95
2018-01-15T12:24:00.571Z,95
2018-01-15T12:25:00.585Z,95
2018-01-15T12:26:00.278Z,95
2018-01-15T12:27:00.537Z,95
2018-01-15T12:27:59.953Z,95
2018-01-15T12:28:59.935Z,95
2018-01-15T12:30:00.519Z,95
2018-01-15T12:31:00.716Z,95
2018-01-15T12:32:00.429Z,95
2018-01-15T12:33:00.151Z,95
2018-01-15T12:34:00.124Z,100
2018-01-15T12:35:00.647Z,105
2018-01-15T12:36:00.447Z,110
2018-01-15T12:37:00.342Z,120
2018-01-15T12:37:59.800Z,140
2018-01-15T12:39:00.301Z,135
2018-01-15T12:40:00.301Z,140
2018-01-15T12:41:00.586Z,135
2018-01-15T12:41:59.702Z,120
2018-01-15T12:43:00.238Z,125
2018-01-15T12:44:00.222Z,125
2018-01-15T12:45:00.223Z,125
2018-01-15T12:46:00.211Z,130
2018-01-15T12:46:59.883Z,130
2018-01-15T12:47:59.878Z,140
2018-01-15T12:49:00.390Z,135
2018-01-15T12:49:59.589Z,140
2018-01-15T12:51:00.093Z,140
2018-01-15T12:51:59.527Z,140
2018-01-15T12:52:59.792Z,140
2018-01-15T12:53:59.765Z,140
2018-01-15T12:54:59.749Z,135
2018-01-15T12:55:59.731Z,130
2018-01-15T12:56:59.733Z,140
2018-01-15T12:57:59.428Z,145
2018-01-15T12:58:59.678Z,135
2018-01-15T12:59:59.654Z,115
2018-01-15T13:00:59.934Z,100
2018-01-15T13:01:59.915Z,90
2018-01-15T13:02:59.876Z,90
2018-01-15T13:03:59.588Z,90
2018-01-15T13:04:59.623Z,90
2018-01-15T13:05:59.591Z,80
2018-01-15T13:06:59.812Z,80
2018-01-15T13:07:59.804Z,80
2018-01-15T13:08:59.507Z,80
2018-01-15T13:09:59.212Z,75
2018-01-15T13:10:59.737Z,80
2018-01-15T13:11:59.720Z,80
2018-01-15T13:12:59.704Z,80
2018-01-15T13:13:59.406Z,75
2018-01-15T13:14:59.433Z,80
2018-01-15T13:15:59.384Z,75
2018-01-15T13:16:59.354Z,75
2018-01-15T13:17:59.881Z,75
2018-01-15T13:18:59.892Z,75
2018-01-15T13:19:59.848Z,75
2018-01-15T13:20:59.305Z,75
2018-01-15T13:21:59.577Z,75
2018-01-15T13:22:59.523Z,75
2018-01-15T13:23:59.236Z,75
2018-01-15T13:24:59.494Z,75
2018-01-15T13:25:59.203Z,75
2018-01-15T13:26:59.183Z,75
2018-01-15T13:27:59.185Z,80
2018-01-15T13:28:59.160Z,80
2018-01-15T13:29:58.859Z,80
2018-01-15T13:30:59.110Z,80
2018-01-15T13:31:59.092Z,80
2018-01-15T13:32:59.085Z,75
2018-01-15T13:33:58.813Z,75
2018-01-15T13:34:59.309Z,70
2018-01-15T13:35:59.037Z,70
2018-01-15T13:36:59.286Z,70
2018-01-15T13:37:59.225Z,70
2018-01-15T13:38:58.696Z,70
2018-01-15T13:39:58.998Z,70
2018-01-15T13:40:59.220Z,70
2018-01-15T13:41:58.655Z,70
2018-01-15T13:42:59.161Z,70
2018-01-15T13:43:58.892Z,70
2018-01-15T13:44:58.584Z,70
2018-01-15T13:45:59.104Z,70
2018-01-15T13:46:58.819Z,65
2018-01-15T13:47:59.619Z,65
2018-01-15T13:48:58.513Z,65
2018-01-15T13:49:59.577Z,65
2018-01-15T13:50:59.036Z,65
2018-01-15T13:51:58.732Z,65
2018-01-15T13:52:58.724Z,65
2018-01-15T13:53:58.689Z,65
2018-01-15T13:54:58.960Z,70
2018-01-15T13:55:58.392Z,70
2018-01-15T13:56:58.913Z,75
2018-01-15T13:57:58.668Z,75
2018-01-15T13:58:58.599Z,75
2018-01-15T13:59:59.124Z,75
2018-01-15T14:00:58.301Z,70
2018-01-15T14:01:58.271Z,70
2018-01-15T14:02:58.804Z,65
2018-01-15T14:03:58.245Z,65
2018-01-15T14:04:58.485Z,65
2018-01-15T14:05:58.196Z,65
2018-01-15T14:06:58.215Z,65
2018-01-15T14:07:58.995Z,65
2018-01-15T14:08:58.718Z,65
2018-01-15T14:09:58.400Z,65
2018-01-15T14:10:58.654Z,60
2018-01-15T14:11:58.093Z,60
2018-01-15T14:12:58.093Z,60
2018-01-15T14:13:58.091Z,60
2018-01-15T14:14:58.314Z,60
2018-01-15T14:15:58.313Z,65
2018-01-15T14:16:57.999Z,65
2018-01-15T14:17:58.800Z,70
2018-01-15T14:18:58.232Z,65
2018-01-15T14:19:58.263Z,60
2018-01-15T14:20:57.925Z,60
2018-01-15T14:21:57.906Z,60
2018-01-15T14:22:58.743Z,60
2018-01-15T14:23:57.896Z,65
2018-01-15T14:24:58.396Z,65
2018-01-15T14:25:57.853Z,60
2018-01-15T14:26:58.625Z,60
2018-01-15T14:27:57.819Z,55
2018-01-15T14:28:58.363Z,55